Time;durP1;ratioP1;P1;durP2;ratioP2;P2;SDS_P1;SDS_P2;PMS_P1;PMS_P2;Temp;Humidity;BMP_temperature;BMP_pressure;BME280_temperature;BME280_humidity;BME280_pressure;Samples;Min_cycle;Max_cycle;Signal;HPM_P1;HPM_P2
2022/07/13 00:02:17;;;;;;;6.97;2.70;;;487.00;2124.80;;;;;;5114706;28;20488;-76
2022/07/13 00:04:43;;;;;;;7.10;2.67;;;486.90;2124.80;;;;;;5114410;28;20062;-76
2022/07/13 00:07:08;;;;;;;6.30;2.58;;;486.90;2124.80;;;;;;5096102;28;20641;-76
2022/07/13 00:09:34;;;;;;;3.97;2.28;;;486.80;2150.40;;;;;;5095924;28;20034;-76
2022/07/13 00:12:00;;;;;;;7.05;2.20;;;486.80;2176.00;;;;;;5114262;28;20027;-76
2022/07/13 00:14:26;;;;;;;8.80;2.63;;;486.80;2176.00;;;;;;5114490;28;20062;-77
2022/07/13 00:16:51;;;;;;;7.32;2.45;;;486.80;2176.00;;;;;;5095409;28;20039;-76
2022/07/13 00:19:18;;;;;;;8.68;3.17;;;486.80;2201.60;;;;;;5114353;28;20723;-76
2022/07/13 00:21:43;;;;;;;6.18;2.53;;;486.80;2201.60;;;;;;5096149;28;20072;-77
2022/07/13 00:24:09;;;;;;;7.20;2.90;;;486.80;2201.60;;;;;;5096019;28;20032;-76
2022/07/13 00:26:35;;;;;;;9.48;2.95;;;486.80;2201.60;;;;;;5095999;28;20362;-77
2022/07/13 00:29:00;;;;;;;5.57;2.53;;;486.70;2227.20;;;;;;5095321;28;20031;-77
2022/07/13 00:31:26;;;;;;;8.88;2.10;;;486.60;2227.20;;;;;;5113661;28;20019;-77
2022/07/13 00:33:52;;;;;;;4.85;2.22;;;486.60;2227.20;;;;;;5114023;28;20473;-76
2022/07/13 00:36:17;;;;;;;4.13;2.35;;;486.70;2227.20;;;;;;5095235;28;20039;-76
2022/07/13 00:38:43;;;;;;;5.03;2.38;;;486.60;2227.20;;;;;;5114244;28;20023;-77
2022/07/13 00:41:09;;;;;;;9.15;2.45;;;486.70;2227.20;;;;;;5114304;28;20443;-77
2022/07/13 00:43:35;;;;;;;12.18;2.97;;;486.70;2227.20;;;;;;5095493;28;20024;-77
2022/07/13 00:46:01;;;;;;;7.40;2.30;;;486.60;2227.20;;;;;;5114047;28;20042;-77
2022/07/13 00:48:27;;;;;;;7.57;2.40;;;486.60;2227.20;;;;;;5113810;28;20051;-77
2022/07/13 00:50:54;;;;;;;7.95;2.22;;;486.60;2227.20;;;;;;5113872;28;20024;-77
2022/07/13 00:53:20;;;;;;;8.65;2.72;;;486.60;2227.20;;;;;;5113679;28;20034;-77
2022/07/13 00:55:47;;;;;;;5.43;1.95;;;486.50;2227.20;;;;;;5113669;28;20039;-78
2022/07/13 00:58:13;;;;;;;6.20;2.20;;;486.60;2227.20;;;;;;5113564;28;20024;-76
2022/07/13 01:00:38;;;;;;;4.65;2.25;;;486.60;2227.20;;;;;;5113617;28;20015;-77
2022/07/13 01:03:04;;;;;;;6.15;2.25;;;486.60;2201.60;;;;;;5113178;28;20023;-77
2022/07/13 01:05:30;;;;;;;10.25;3.05;;;486.50;2227.20;;;;;;5113539;28;20024;-77
2022/07/13 01:07:56;;;;;;;4.03;2.00;;;486.50;2227.20;;;;;;5113570;28;20023;-77
2022/07/13 01:10:22;;;;;;;6.30;2.20;;;461.70;2227.20;;;;;;5113352;28;20024;-77
2022/07/13 01:12:48;;;;;;;5.40;2.58;;;486.40;2227.20;;;;;;5113848;28;20476;-76
2022/07/13 01:15:15;;;;;;;6.65;2.65;;;486.40;2252.80;;;;;;5095156;28;20421;-76
2022/07/13 01:17:42;;;;;;;5.07;2.15;;;486.40;2252.80;;;;;;5113246;28;20382;-77
2022/07/13 01:20:09;;;;;;;7.20;2.63;;;461.70;2252.80;;;;;;5113086;28;20020;-77
2022/07/13 01:22:50;;;;;;;6.85;2.25;;;486.40;2252.80;;;;;;5113312;28;20401;-77
2022/07/13 01:25:16;;;;;;;6.20;2.50;;;486.40;2252.80;;;;;;5113077;28;20090;-77
2022/07/13 01:27:43;;;;;;;5.45;2.53;;;461.70;2278.40;;;;;;5113071;28;20020;-77
2022/07/13 01:30:09;;;;;;;6.88;2.40;;;461.70;2278.40;;;;;;5113239;28;20039;-77
2022/07/13 01:32:48;;;;;;;6.93;2.00;;;461.70;2304.00;;;;;;5112685;28;20095;-77
2022/07/13 01:35:15;;;;;;;5.78;2.40;;;461.70;2304.00;;;;;;5113238;28;20390;-77
2022/07/13 01:37:43;;;;;;;9.90;2.55;;;461.70;2304.00;;;;;;5113029;28;20075;-77
2022/07/13 01:40:09;;;;;;;8.52;3.30;;;461.70;2304.00;;;;;;5112825;28;20361;-76
2022/07/13 01:42:46;;;;;;;7.80;2.70;;;461.50;2329.60;;;;;;5094754;28;20024;-77
2022/07/13 01:45:14;;;;;;;7.07;2.33;;;461.70;2329.60;;;;;;5112980;28;20077;-76
2022/07/13 01:47:41;;;;;;;8.10;2.38;;;461.70;2304.00;;;;;;5092045;28;20023;-78
2022/07/13 01:50:09;;;;;;;8.75;2.88;;;461.70;2329.60;;;;;;5112685;28;20094;-77
2022/07/13 01:52:35;;;;;;;5.60;2.78;;;461.70;2329.60;;;;;;5112858;28;20039;-78
2022/07/13 01:55:06;;;;;;;4.00;2.15;;;461.60;2355.20;;;;;;5112739;28;20035;-77
2022/07/13 01:57:32;;;;;;;6.22;2.03;;;461.50;2380.80;;;;;;5112741;28;20618;-78
2022/07/13 02:00:04;;;;;;;6.00;2.50;;;461.30;2380.80;;;;;;5113305;28;20023;-78
2022/07/13 02:02:30;;;;;;;3.67;2.00;;;461.30;2380.80;;;;;;5093943;28;20053;-77
2022/07/13 02:04:56;;;;;;;5.13;2.40;;;461.30;2380.80;;;;;;5093895;28;20106;-77
2022/07/13 02:07:22;;;;;;;5.03;2.15;;;461.30;2380.80;;;;;;5112510;28;20472;-77
2022/07/13 02:09:49;;;;;;;5.10;2.58;;;461.40;2380.80;;;;;;5112780;28;20072;-76
2022/07/13 02:12:16;;;;;;;4.35;2.50;;;461.40;2380.80;;;;;;5093924;28;20035;-77
2022/07/13 02:14:42;;;;;;;7.80;2.20;;;461.30;2380.80;;;;;;5111490;28;20465;-77
2022/07/13 02:17:08;;;;;;;7.65;2.33;;;461.20;2380.80;;;;;;5094257;28;20019;-77
2022/07/13 02:19:33;;;;;;;7.32;2.28;;;461.10;2380.80;;;;;;5112389;28;20034;-77
2022/07/13 02:21:59;;;;;;;6.43;2.58;;;460.90;2380.80;;;;;;5094146;28;20085;-77
2022/07/13 02:24:25;;;;;;;5.55;2.72;;;460.90;2380.80;;;;;;5112114;28;20315;-77
2022/07/13 02:26:51;;;;;;;9.02;2.35;;;460.90;2380.80;;;;;;5112357;28;20131;-76
2022/07/13 02:29:17;;;;;;;8.50;2.72;;;460.90;2380.80;;;;;;5112312;28;20019;-77
2022/07/13 02:31:42;;;;;;;6.25;2.60;;;460.80;2380.80;;;;;;5112168;28;20028;-77
2022/07/13 02:34:08;;;;;;;5.03;2.70;;;460.80;2380.80;;;;;;5093966;28;20031;-77
2022/07/13 02:36:34;;;;;;;5.30;2.85;;;460.80;2380.80;;;;;;5094154;28;20027;-77
2022/07/13 02:38:59;;;;;;;4.90;2.80;;;460.80;2380.80;;;;;;5112074;28;20037;-77
2022/07/13 02:41:25;;;;;;;8.13;2.58;;;460.80;2380.80;;;;;;5093736;28;20023;-76
2022/07/13 02:43:51;;;;;;;7.35;2.90;;;460.80;2380.80;;;;;;5094029;28;20388;-75
2022/07/13 02:46:17;;;;;;;6.28;2.63;;;436.10;2355.20;;;;;;5112085;28;20508;-76
2022/07/13 02:48:42;;;;;;;10.45;2.85;;;460.80;2380.80;;;;;;5112031;28;20077;-77
2022/07/13 02:51:08;;;;;;;6.35;2.45;;;460.80;2380.80;;;;;;5111983;28;20376;-78
2022/07/13 02:53:34;;;;;;;9.57;2.33;;;436.10;2355.20;;;;;;5112283;28;20035;-77
2022/07/13 02:56:00;;;;;;;7.15;2.58;;;436.10;2355.20;;;;;;5089439;28;20043;-76
2022/07/13 02:58:25;;;;;;;6.63;2.78;;;436.10;2355.20;;;;;;5090138;28;20036;-77
2022/07/13 03:00:51;;;;;;;11.10;2.50;;;436.10;2355.20;;;;;;5089906;28;20028;-77
2022/07/13 03:03:17;;;;;;;7.18;2.55;;;436.10;2355.20;;;;;;5091580;28;20686;-77
2022/07/13 03:05:43;;;;;;;4.70;2.53;;;436.00;2355.20;;;;;;5087533;28;20103;-77
2022/07/13 03:08:08;;;;;;;10.95;2.53;;;435.90;2355.20;;;;;;5090030;28;20042;-77
2022/07/13 03:10:34;;;;;;;5.00;2.55;;;435.80;2355.20;;;;;;5091412;28;20023;-77
2022/07/13 03:13:00;;;;;;;7.60;2.45;;;435.80;2355.20;;;;;;5091191;28;20024;-76
2022/07/13 03:15:26;;;;;;;10.90;3.28;;;435.80;2355.20;;;;;;5091644;28;20444;-77
2022/07/13 03:17:52;;;;;;;4.55;2.30;;;435.80;2355.20;;;;;;5091208;28;20016;-76
2022/07/13 03:20:19;;;;;;;8.00;2.90;;;435.60;2355.20;;;;;;5091662;28;20103;-76
2022/07/13 03:22:45;;;;;;;7.40;2.78;;;435.60;2355.20;;;;;;5088656;28;20015;-77
2022/07/13 03:25:11;;;;;;;12.13;3.08;;;435.60;2355.20;;;;;;5090165;28;20029;-77
2022/07/13 03:27:37;;;;;;;4.05;2.67;;;435.60;2355.20;;;;;;5094981;28;20032;-75
2022/07/13 03:30:04;;;;;;;6.90;2.85;;;435.50;2355.20;;;;;;5095155;28;20424;-77
2022/07/13 03:32:30;;;;;;;5.90;2.85;;;435.30;2355.20;;;;;;5094929;28;20095;-77
2022/07/13 03:34:55;;;;;;;11.65;3.17;;;435.30;2355.20;;;;;;5094890;28;20112;-75
2022/07/13 03:37:21;;;;;;;4.18;2.42;;;435.40;2355.20;;;;;;5094753;28;20525;-76
2022/07/13 03:39:47;;;;;;;7.97;2.95;;;435.40;2355.20;;;;;;5094700;28;20031;-76
2022/07/13 03:42:13;;;;;;;5.90;2.95;;;435.40;2355.20;;;;;;5094915;28;20099;-77
2022/07/13 03:44:38;;;;;;;8.23;3.42;;;435.30;2355.20;;;;;;5094530;28;20050;-77
2022/07/13 03:47:04;;;;;;;6.95;3.20;;;435.50;2355.20;;;;;;5094587;28;20046;-77
2022/07/13 03:49:30;;;;;;;7.35;2.25;;;435.40;2355.20;;;;;;5093204;28;20034;-77
2022/07/13 03:51:56;;;;;;;7.45;3.10;;;435.50;2355.20;;;;;;5093030;28;20020;-76
2022/07/13 03:54:22;;;;;;;4.93;3.13;;;435.50;2355.20;;;;;;5093246;28;20040;-78
2022/07/13 03:56:48;;;;;;;9.27;2.42;;;435.40;2355.20;;;;;;5093794;28;20055;-76
2022/07/13 03:59:13;;;;;;;5.72;2.60;;;435.40;2355.20;;;;;;5094774;28;20032;-78
2022/07/13 04:01:40;;;;;;;6.13;2.92;;;435.40;2355.20;;;;;;5094982;28;20020;-77
2022/07/13 04:04:06;;;;;;;7.80;2.42;;;435.50;2355.20;;;;;;5094464;28;20057;-78
2022/07/13 04:06:32;;;;;;;10.90;3.10;;;435.60;2355.20;;;;;;5080391;28;20016;-76
2022/07/13 04:08:59;;;;;;;5.60;2.58;;;435.50;2355.20;;;;;;5105979;28;20032;-78
2022/07/13 04:11:25;;;;;;;4.35;3.13;;;435.60;2355.20;;;;;;5073121;28;20030;-77
2022/07/13 04:13:52;;;;;;;9.35;2.85;;;435.60;2355.20;;;;;;5091823;28;20031;-77
2022/07/13 04:16:17;;;;;;;7.10;2.50;;;435.70;2355.20;;;;;;5093031;28;20028;-76
2022/07/13 04:18:43;;;;;;;5.80;2.60;;;435.80;2355.20;;;;;;5094508;28;20500;-77
2022/07/13 04:21:11;;;;;;;7.10;2.75;;;435.90;2355.20;;;;;;5100391;28;20102;-76
2022/07/13 04:23:37;;;;;;;9.43;2.65;;;435.90;2355.20;;;;;;5101053;28;20138;-77
2022/07/13 04:26:03;;;;;;;6.18;2.92;;;436.00;2355.20;;;;;;5076063;28;20415;-78
2022/07/13 04:28:29;;;;;;;5.75;2.72;;;436.10;2355.20;;;;;;5088053;28;20481;-74
2022/07/13 04:30:54;;;;;;;5.55;2.47;;;460.90;2380.80;;;;;;5089178;28;20494;-77
2022/07/13 04:33:20;;;;;;;12.40;2.22;;;460.90;2380.80;;;;;;5071291;28;20074;-75
2022/07/13 04:35:46;;;;;;;9.23;2.65;;;461.00;2380.80;;;;;;5078445;28;20482;-76
2022/07/13 04:38:12;;;;;;;4.15;2.50;;;461.00;2380.80;;;;;;5084023;28;20385;-76
2022/07/13 04:40:39;;;;;;;6.97;2.47;;;461.20;2380.80;;;;;;5073928;28;20020;-78
2022/07/13 04:43:05;;;;;;;5.80;2.20;;;461.20;2380.80;;;;;;5099467;28;20020;-78
2022/07/13 04:45:32;;;;;;;11.43;2.90;;;461.20;2380.80;;;;;;5089252;28;20425;-77
2022/07/13 04:47:58;;;;;;;10.95;2.60;;;461.20;2380.80;;;;;;5091296;28;20035;-77
2022/07/13 04:50:24;;;;;;;3.65;2.03;;;461.20;2380.80;;;;;;5078041;28;20120;-75
2022/07/13 04:52:50;;;;;;;8.95;2.50;;;461.30;2380.80;;;;;;5090350;28;20449;-76
2022/07/13 04:55:17;;;;;;;5.68;2.67;;;461.20;2380.80;;;;;;5070157;28;20039;-76
2022/07/13 04:57:44;;;;;;;7.22;2.20;;;461.40;2380.80;;;;;;5092330;28;20024;-75
2022/07/13 05:00:11;;;;;;;8.63;2.50;;;461.50;2380.80;;;;;;5093500;28;20107;-76
2022/07/13 05:02:37;;;;;;;5.88;2.42;;;461.50;2380.80;;;;;;5093416;28;20024;-75
2022/07/13 05:05:04;;;;;;;7.80;2.67;;;461.50;2380.80;;;;;;5093199;28;20020;-77
2022/07/13 05:07:29;;;;;;;7.68;2.22;;;461.50;2380.80;;;;;;5080139;28;20028;-76
2022/07/13 05:09:56;;;;;;;4.60;2.28;;;461.70;2380.80;;;;;;5091322;28;20024;-80
2022/07/13 05:12:22;;;;;;;9.23;2.50;;;461.70;2380.80;;;;;;5092040;28;20020;-75
2022/07/13 05:14:48;;;;;;;5.60;2.17;;;486.40;2380.80;;;;;;5078626;28;20044;-75
2022/07/13 05:17:14;;;;;;;4.53;1.75;;;486.50;2380.80;;;;;;5083938;28;20480;-75
2022/07/13 05:19:39;;;;;;;12.32;2.88;;;486.60;2380.80;;;;;;5102095;28;20559;-75
2022/07/13 05:22:05;;;;;;;4.05;2.20;;;486.60;2380.80;;;;;;5092795;28;20020;-75
2022/07/13 05:24:31;;;;;;;10.75;2.45;;;486.70;2380.80;;;;;;5092932;28;20076;-74
2022/07/13 05:26:56;;;;;;;9.02;2.25;;;486.70;2380.80;;;;;;5092776;28;20051;-75
2022/07/13 05:29:22;;;;;;;9.07;2.72;;;486.80;2380.80;;;;;;5083106;28;20066;-74
2022/07/13 05:31:48;;;;;;;8.05;2.65;;;487.00;2380.80;;;;;;5088405;28;20054;-74
2022/07/13 05:34:14;;;;;;;8.35;2.40;;;487.00;2380.80;;;;;;5092744;28;20032;-73
2022/07/13 05:36:40;;;;;;;4.97;2.10;;;487.10;2380.80;;;;;;5092647;28;20016;-74
2022/07/13 05:39:06;;;;;;;11.30;2.72;;;487.10;2380.80;;;;;;5072518;28;20462;-74
2022/07/13 05:41:34;;;;;;;6.00;1.80;;;487.30;2380.80;;;;;;5084529;28;20378;-75
2022/07/13 05:44:00;;;;;;;7.43;2.30;;;512.00;2355.20;;;;;;5074696;28;20020;-74
2022/07/13 05:46:26;;;;;;;5.20;2.10;;;512.20;2304.00;;;;;;5092493;28;20497;-76
2022/07/13 05:48:52;;;;;;;5.32;1.98;;;512.20;2278.40;;;;;;5073794;28;20552;-74
2022/07/13 05:51:18;;;;;;;9.57;3.15;;;512.30;2252.80;;;;;;5092582;28;20024;-74
2022/07/13 05:53:46;;;;;;;10.13;2.40;;;512.50;2252.80;;;;;;5092171;28;20489;-74
2022/07/13 05:56:11;;;;;;;7.35;2.00;;;512.60;2124.80;;;;;;5094992;28;20032;-74
2022/07/13 05:58:37;;;;;;;6.57;2.08;;;512.80;2124.80;;;;;;5112659;28;20035;-74
2022/07/13 06:01:03;;;;;;;7.80;2.30;;;512.90;2099.20;;;;;;5097709;28;20026;-74
2022/07/13 06:03:29;;;;;;;4.78;2.13;;;512.90;2022.40;;;;;;5092128;28;20028;-74
2022/07/13 06:05:54;;;;;;;4.65;1.77;;;537.70;2022.40;;;;;;5092571;28;20078;-75
2022/07/13 06:08:20;;;;;;;5.70;2.20;;;537.80;2022.40;;;;;;5091939;28;20024;-74
2022/07/13 06:10:46;;;;;;;8.25;1.85;;;537.90;1996.80;;;;;;5092389;28;20101;-74
2022/07/13 06:13:12;;;;;;;6.05;1.80;;;538.00;2022.40;;;;;;5106164;28;21999;-74
2022/07/13 06:15:37;;;;;;;5.85;1.80;;;538.10;1971.20;;;;;;5092147;28;20465;-74
2022/07/13 06:18:04;;;;;;;6.78;1.80;;;538.20;1971.20;;;;;;5092268;28;20028;-74
2022/07/13 06:20:30;;;;;;;7.93;2.17;;;538.30;1945.60;;;;;;5091733;28;20024;-74
2022/07/13 06:23:11;;;;;;;7.85;2.20;;;538.40;1894.40;;;;;;5092297;28;20431;-74
2022/07/13 06:25:38;;;;;;;7.55;1.90;;;538.50;1920.00;;;;;;5078685;28;20076;-74
2022/07/13 06:28:04;;;;;;;6.68;1.90;;;563.20;1920.00;;;;;;5092302;28;20103;-74
2022/07/13 06:30:30;;;;;;;9.15;1.67;;;563.30;1920.00;;;;;;5091862;28;20073;-74
2022/07/13 06:32:56;;;;;;;5.75;1.58;;;563.50;1920.00;;;;;;5092014;28;20061;-75
2022/07/13 06:35:23;;;;;;;5.93;1.55;;;563.60;1868.80;;;;;;5088618;28;20055;-74
2022/07/13 06:37:49;;;;;;;6.53;1.85;;;563.60;1843.20;;;;;;5080990;28;20470;-74
2022/07/13 06:40:15;;;;;;;4.32;1.60;;;563.80;1843.20;;;;;;5092055;28;20103;-78
2022/07/13 06:42:40;;;;;;;6.60;1.58;;;563.90;1817.60;;;;;;5092140;28;20391;-80
2022/07/13 06:45:07;;;;;;;13.52;4.20;;;564.00;1817.60;;;;;;5090854;28;20016;-77
2022/07/13 06:47:32;;;;;;;7.25;2.10;;;564.10;1843.20;;;;;;5092044;28;20024;-77
2022/07/13 06:49:58;;;;;;;5.43;2.22;;;588.80;1817.60;;;;;;5090845;28;20443;-77
2022/07/13 06:52:24;;;;;;;11.52;2.17;;;589.00;1843.20;;;;;;5091791;28;20579;-77
2022/07/13 06:54:49;;;;;;;3.67;1.65;;;589.10;1792.00;;;;;;5075811;28;20132;-77
2022/07/13 06:57:15;;;;;;;4.93;1.63;;;589.20;1766.40;;;;;;5098661;28;20119;-76
2022/07/13 06:59:42;;;;;;;2.85;1.85;;;589.40;1740.80;;;;;;5094334;28;20063;-76
2022/07/13 07:02:08;;;;;;;7.50;1.83;;;589.50;1715.20;;;;;;5084104;28;20111;-77
2022/07/13 07:04:35;;;;;;;3.35;1.70;;;589.50;1689.60;;;;;;5091151;28;20111;-76
2022/07/13 07:07:02;;;;;;;7.38;1.65;;;589.70;1664.00;;;;;;5103842;28;20019;-78
2022/07/13 07:09:28;;;;;;;4.15;1.95;;;589.70;1664.00;;;;;;5100700;28;20031;-82
2022/07/13 07:11:53;;;;;;;4.97;2.03;;;589.70;1664.00;;;;;;5094519;28;20104;-79
2022/07/13 07:14:19;;;;;;;5.15;1.77;;;614.40;1664.00;;;;;;5098667;28;20485;-81
2022/07/13 07:16:45;;;;;;;4.90;1.55;;;614.50;1664.00;;;;;;5092353;28;20060;-78
2022/07/13 07:19:10;;;;;;;11.35;1.85;;;614.60;1638.40;;;;;;5097599;28;20020;-77
2022/07/13 07:21:37;;;;;;;4.05;1.60;;;614.70;1612.80;;;;;;5075959;28;20537;-76
2022/07/13 07:24:03;;;;;;;4.78;1.80;;;614.80;1612.80;;;;;;5095211;28;20024;-76
2022/07/13 07:26:32;;;;;;;7.65;1.90;;;614.90;1536.00;;;;;;5108999;28;20024;-76
2022/07/13 07:28:59;;;;;;;6.47;2.15;;;614.90;1510.40;;;;;;5093379;28;20032;-78
2022/07/13 07:31:28;;;;;;;7.95;2.10;;;615.00;1510.40;;;;;;5092833;28;20032;-79
2022/07/13 07:33:54;;;;;;;6.05;1.75;;;615.30;1536.00;;;;;;5090535;28;20039;-75
2022/07/13 07:36:20;;;;;;;2.42;1.55;;;615.30;1510.40;;;;;;5092707;28;20036;-77
2022/07/13 07:38:45;;;;;;;4.95;1.73;;;615.30;1510.40;;;;;;5093062;28;20046;-77
2022/07/13 07:41:11;;;;;;;5.00;1.77;;;640.00;1510.40;;;;;;5094449;28;20411;-78
2022/07/13 07:43:38;;;;;;;5.13;1.98;;;640.10;1510.40;;;;;;5094955;28;20028;-77
2022/07/13 07:46:04;;;;;;;6.45;1.67;;;640.20;1484.80;;;;;;5094926;28;20027;-78
2022/07/13 07:48:30;;;;;;;4.55;1.80;;;640.40;1459.20;;;;;;5095161;28;20028;-78
2022/07/13 07:50:56;;;;;;;4.05;1.40;;;640.40;1459.20;;;;;;5094923;28;20026;-77
2022/07/13 07:53:22;;;;;;;4.57;1.30;;;640.50;1433.60;;;;;;5094673;28;20032;-78
2022/07/13 07:55:47;;;;;;;5.18;1.65;;;640.60;1408.00;;;;;;5084360;28;20107;-77
2022/07/13 07:58:14;;;;;;;5.07;1.65;;;640.70;1382.40;;;;;;5086189;28;20028;-77
2022/07/13 08:00:41;;;;;;;5.82;1.38;;;640.90;1382.40;;;;;;5094695;28;20028;-77
2022/07/13 08:03:07;;;;;;;2.50;1.38;;;640.90;1382.40;;;;;;5094482;28;20082;-77
2022/07/13 08:05:33;;;;;;;6.57;1.60;;;665.60;1408.00;;;;;;5083399;28;20037;-77
2022/07/13 08:07:59;;;;;;;5.38;1.50;;;665.70;1382.40;;;;;;5103924;28;20527;-78
2022/07/13 08:10:25;;;;;;;4.20;1.40;;;665.70;1356.80;;;;;;5093398;28;20035;-77
2022/07/13 08:12:51;;;;;;;8.38;1.30;;;665.90;1356.80;;;;;;5091665;28;20216;-76
2022/07/13 08:15:17;;;;;;;5.63;2.03;;;665.90;1356.80;;;;;;5094440;28;20093;-78
2022/07/13 08:17:42;;;;;;;6.85;2.78;;;666.00;1356.80;;;;;;5080612;28;20120;-80
2022/07/13 08:20:08;;;;;;;9.80;2.00;;;666.20;1356.80;;;;;;5107613;28;20048;-77
2022/07/13 08:22:34;;;;;;;2.45;1.50;;;666.30;1305.60;;;;;;5083114;28;20031;-79
2022/07/13 08:25:00;;;;;;;7.20;1.52;;;666.30;1280.00;;;;;;5090505;28;20036;-79
2022/07/13 08:27:30;;;;;;;7.05;1.60;;;666.40;1305.60;;;;;;5097355;28;20067;-79
2022/07/13 08:29:57;;;;;;;7.13;1.88;;;666.30;1331.20;;;;;;5087081;28;20077;-80
2022/07/13 08:32:23;;;;;;;5.30;1.70;;;666.40;1305.60;;;;;;5086508;28;20075;-79
2022/07/13 08:40:19;;;;;;;6.88;1.42;;;691.30;1228.80;;;;;;5096913;28;20451;-84
2022/07/13 08:42:45;;;;;;;3.83;1.20;;;691.40;1228.80;;;;;;5106123;28;20020;-79
2022/07/13 08:45:11;;;;;;;3.83;1.33;;;691.40;1228.80;;;;;;5093954;28;20024;-79
2022/07/13 08:47:39;;;;;;;6.00;1.55;;;691.40;1228.80;;;;;;5073789;28;20462;-77
2022/07/13 08:50:07;;;;;;;3.97;1.50;;;691.40;1254.40;;;;;;5092643;28;20024;-79
2022/07/13 08:52:38;;;;;;;3.63;1.27;;;691.60;1254.40;;;;;;5092496;28;20016;-78
2022/07/13 08:55:05;;;;;;;6.18;2.10;;;691.60;1254.40;;;;;;5093142;28;20181;-78
2022/07/13 08:57:38;;;;;;;14.95;1.98;;;691.80;1228.80;;;;;;5092522;28;20032;-78
2022/07/13 09:00:11;;;;;;;7.35;1.48;;;691.80;1177.60;;;;;;5078664;28;20027;-78
2022/07/13 09:02:38;;;;;;;7.60;1.40;;;691.80;1177.60;;;;;;5091816;28;20024;-77
2022/07/13 09:05:06;;;;;;;6.35;1.60;;;691.90;1203.20;;;;;;5093396;28;20090;-77
2022/07/13 09:07:33;;;;;;;3.70;1.13;;;691.90;1152.00;;;;;;5093245;28;20020;-77
2022/07/13 09:10:01;;;;;;;6.07;1.48;;;716.80;1152.00;;;;;;5093006;28;20089;-77
2022/07/13 09:12:28;;;;;;;6.07;1.50;;;692.10;1126.40;;;;;;5092738;28;20039;-77
2022/07/13 09:14:56;;;;;;;3.35;1.20;;;716.80;1152.00;;;;;;5085280;28;20040;-77
2022/07/13 09:17:29;;;;;;;5.50;1.40;;;717.00;1100.80;;;;;;5078461;28;20027;-78
2022/07/13 09:19:55;;;;;;;5.40;1.27;;;717.00;1075.20;;;;;;5091664;28;20020;-77
2022/07/13 09:22:21;;;;;;;6.38;1.40;;;716.80;1126.40;;;;;;5091426;28;20024;-78
2022/07/13 09:24:50;;;;;;;2.65;1.23;;;716.80;1152.00;;;;;;5090060;28;20024;-77
2022/07/13 09:27:17;;;;;;;4.22;0.98;;;716.90;1100.80;;;;;;5090082;28;20074;-76
2022/07/13 09:29:43;;;;;;;2.67;1.40;;;716.80;1100.80;;;;;;5092744;28;20074;-76
2022/07/13 09:32:11;;;;;;;2.40;1.30;;;717.00;1100.80;;;;;;5071232;28;20025;-77
2022/07/13 09:34:52;;;;;;;11.23;1.60;;;717.20;1100.80;;;;;;5092709;28;20052;-77
2022/07/13 09:37:20;;;;;;;11.38;1.48;;;717.30;1100.80;;;;;;5074459;28;20036;-77
2022/07/13 09:40:01;;;;;;;5.57;1.55;;;716.90;1100.80;;;;;;5074590;28;20030;-76
2022/07/13 09:42:30;;;;;;;6.00;1.30;;;716.90;1100.80;;;;;;5054374;28;20024;-78
2022/07/13 09:47:47;;;;;;;5.93;1.30;;;717.20;1126.40;;;;;;5072946;28;20051;-76
2022/07/13 09:50:15;;;;;;;10.27;1.42;;;717.60;1049.60;;;;;;5072027;28;20024;-76
2022/07/13 09:52:41;;;;;;;1.48;1.05;;;717.60;1024.00;;;;;;5072183;28;20025;-76
2022/07/13 09:55:12;;;;;;;2.55;1.38;;;742.50;1024.00;;;;;;5071649;28;20033;-76
2022/07/13 09:57:52;;;;;;;1.83;1.00;;;742.70;998.40;;;;;;5077449;28;20031;-76
2022/07/13 10:00:19;;;;;;;1.63;1.10;;;742.60;998.40;;;;;;5092483;28;20107;-77
2022/07/13 10:02:48;;;;;;;1.52;1.00;;;742.80;998.40;;;;;;5074009;28;20024;-77
2022/07/13 10:05:18;;;;;;;3.22;1.20;;;742.90;972.80;;;;;;5092522;28;20028;-76
2022/07/13 10:07:46;;;;;;;5.20;1.17;;;743.00;947.20;;;;;;5073577;28;20028;-77
2022/07/13 10:10:15;;;;;;;5.57;1.30;;;743.30;972.80;;;;;;5092363;28;20052;-77
2022/07/13 10:12:41;;;;;;;3.20;1.48;;;743.10;947.20;;;;;;5092377;28;20012;-76
2022/07/13 10:15:08;;;;;;;5.50;1.40;;;768.40;947.20;;;;;;5091990;28;20511;-76
2022/07/13 10:17:35;;;;;;;3.72;1.40;;;768.50;947.20;;;;;;5092360;28;20020;-76
2022/07/13 10:20:07;;;;;;;8.50;1.90;;;768.50;921.60;;;;;;5092178;28;20020;-77
2022/07/13 10:22:52;;;;;;;11.20;1.83;;;768.00;947.20;;;;;;5092240;28;20016;-77
2022/07/13 10:25:18;;;;;;;1.67;1.05;;;768.40;921.60;;;;;;5070457;28;20082;-77
2022/07/13 10:27:44;;;;;;;3.20;1.60;;;768.60;921.60;;;;;;5087486;28;20081;-76
2022/07/13 10:30:23;;;;;;;4.65;1.52;;;768.10;947.20;;;;;;5091804;28;20032;-77
2022/07/13 10:32:49;;;;;;;3.25;1.00;;;743.10;972.80;;;;;;5091012;28;20477;-77
2022/07/13 10:35:17;;;;;;;4.30;1.20;;;742.90;972.80;;;;;;5089664;28;20056;-76
2022/07/13 10:38:03;;;;;;;3.45;1.50;;;743.30;947.20;;;;;;5077607;28;20107;-78
2022/07/13 10:40:31;;;;;;;1.70;1.10;;;768.30;921.60;;;;;;5077881;28;20024;-77
2022/07/13 10:43:05;;;;;;;8.15;1.65;;;768.60;921.60;;;;;;5078071;28;20020;-79
2022/07/13 10:45:43;;;;;;;5.93;1.90;;;768.90;896.00;;;;;;5096072;28;20020;-78
2022/07/13 10:48:34;;;;;;;5.78;1.42;;;793.60;947.20;;;;;;5077338;28;20393;-78
2022/07/13 10:51:01;;;;;;;3.08;1.55;;;793.80;896.00;;;;;;5077613;28;20024;-78
2022/07/13 10:53:40;;;;;;;6.93;1.50;;;794.00;896.00;;;;;;5076666;28;20132;-77
2022/07/13 10:56:32;;;;;;;4.88;1.52;;;794.00;896.00;;;;;;5077196;28;20051;-77
2022/07/13 10:58:58;;;;;;;2.30;1.52;;;794.00;896.00;;;;;;5073253;28;20040;-77
2022/07/13 11:01:36;;;;;;;5.47;1.48;;;794.10;921.60;;;;;;5095691;28;20030;-77
2022/07/13 11:04:02;;;;;;;4.68;1.75;;;794.10;896.00;;;;;;5095763;28;20016;-77
2022/07/13 11:06:31;;;;;;;4.15;1.45;;;794.20;896.00;;;;;;5077470;28;20055;-77
2022/07/13 11:09:12;;;;;;;4.82;1.67;;;794.30;896.00;;;;;;5076756;28;20043;-77
2022/07/13 11:11:48;;;;;;;2.33;1.17;;;794.50;896.00;;;;;;5077638;28;20260;-77
2022/07/13 11:14:36;;;;;;;4.10;1.20;;;819.20;896.00;;;;;;5077387;28;20035;-77
2022/07/13 11:17:31;;;;;;;1.83;1.00;;;819.30;870.40;;;;;;5095309;28;20094;-77
2022/07/13 11:20:05;;;;;;;4.65;1.45;;;819.30;870.40;;;;;;5010725;28;20034;-78
2022/07/13 11:25:32;;;;;;;4.00;1.33;;;794.20;896.00;;;;;;5013377;28;20542;-78
2022/07/13 11:28:19;;;;;;;4.95;1.20;;;794.20;896.00;;;;;;4996639;28;20137;-78
2022/07/13 11:30:52;;;;;;;8.60;1.60;;;768.90;896.00;;;;;;4996669;28;20536;-80
2022/07/13 11:33:19;;;;;;;4.93;1.20;;;793.70;921.60;;;;;;5013297;28;20030;-78
2022/07/13 11:35:46;;;;;;;3.67;1.45;;;793.70;921.60;;;;;;5013064;28;20126;-78
2022/07/13 11:38:14;;;;;;;2.47;1.40;;;793.90;896.00;;;;;;4996608;28;20022;-78
2022/07/13 11:40:40;;;;;;;2.80;1.52;;;794.00;896.00;;;;;;5013043;28;20036;-78
2022/07/13 11:43:08;;;;;;;5.15;1.10;;;793.60;896.00;;;;;;5013191;28;20036;-78
2022/07/13 11:45:34;;;;;;;4.47;1.60;;;768.90;896.00;;;;;;4996820;28;20022;-79
2022/07/13 11:48:02;;;;;;;7.63;1.55;;;768.80;896.00;;;;;;4996191;28;20041;-78
2022/07/13 11:50:49;;;;;;;11.00;2.10;;;793.60;921.60;;;;;;5012805;28;20415;-78
2022/07/13 11:53:28;;;;;;;4.05;1.60;;;793.90;921.60;;;;;;4996033;28;20514;-78
2022/07/13 11:56:03;;;;;;;7.95;1.73;;;794.10;896.00;;;;;;5016219;28;20463;-77
2022/07/13 11:58:31;;;;;;;9.57;1.40;;;794.20;896.00;;;;;;5076776;28;20032;-78
2022/07/13 12:00:58;;;;;;;8.15;1.63;;;794.30;921.60;;;;;;5076318;28;20028;-77
2022/07/13 12:03:32;;;;;;;10.02;1.40;;;794.40;921.60;;;;;;5067397;28;20033;-78
2022/07/13 12:05:59;;;;;;;4.72;1.33;;;794.30;896.00;;;;;;5049819;28;20029;-77
2022/07/13 12:08:26;;;;;;;12.20;1.25;;;819.30;896.00;;;;;;5056547;28;20078;-80
2022/07/13 12:10:51;;;;;;;8.00;1.50;;;819.40;870.40;;;;;;5074604;28;20025;-80
2022/07/13 12:13:18;;;;;;;15.05;1.48;;;819.30;870.40;;;;;;5057050;28;20029;-81
2022/07/13 12:15:46;;;;;;;39.53;3.83;;;819.50;896.00;;;;;;5074841;28;20021;-78
2022/07/13 12:18:14;;;;;;;10.10;1.30;;;819.50;870.40;;;;;;5074889;28;20024;-82
2022/07/13 12:20:40;;;;;;;7.57;1.50;;;819.30;896.00;;;;;;5057541;28;20382;-84
2022/07/13 12:23:08;;;;;;;5.78;1.30;;;819.50;870.40;;;;;;5074768;28;20103;-82
2022/07/13 12:25:41;;;;;;;7.18;1.30;;;819.40;870.40;;;;;;5056861;28;20052;-83
2022/07/13 12:28:09;;;;;;;8.60;1.45;;;819.50;870.40;;;;;;5057517;28;20033;-83
2022/07/13 12:30:39;;;;;;;1.63;1.30;;;819.80;870.40;;;;;;5056855;28;20029;-80
2022/07/13 12:33:12;;;;;;;11.75;1.30;;;820.10;870.40;;;;;;5075174;28;20017;-81